Pilot Butte, Canada
Current Conditions -  °F | °C
As of 10:00 AM on Saturday 25 Oct 2014 (Local Time) from CYQR Reporting Station
Broken Clouds Broken Clouds  
Wind Chill: 37°   Ceiling: 27000
Heat Index: 37°   Visibility: 15mi
Dew Point: 32°   Wind: 2mph
Humidity: 81%   Direction: NA
Pressure: 30.09"   Gusts: NA
Location:  50.48°N, 104.42°W
Report Text: CYQR 251600Z VRB02KT 15SM BKN270 03/00 A3009 RMK CI5 SLP213
Loading
Personal Weather Stations






























Interactive Weather Map
Tropical Storm Tracking
New forecast layout! Learn more

10-Day Weather Forecast

Advertisements
Track Severe Weather on mobile